Time;durP1;ratioP1;P1;durP2;ratioP2;P2;SDS_P1;SDS_P2;PMS_P1;PMS_P2;Temp;Humidity;BMP_temperature;BMP_pressure;BME280_temperature;BME280_humidity;BME280_pressure;Samples;Min_cycle;Max_cycle;Signal;HPM_P1;HPM_P2
2022/09/09 00:01:57;;;;;;;6.47;1.42;;;;;;;;;;5073315;28;20025;-71
2022/09/09 00:04:27;;;;;;;5.18;1.60;;;;;;;;;;5073510;28;20044;-71
2022/09/09 00:07:04;;;;;;;3.15;1.50;;;;;;;;;;5073369;28;20416;-71
2022/09/09 00:09:31;;;;;;;2.33;1.23;;;;;;;;;;5074254;28;20095;-71
2022/09/09 00:12:09;;;;;;;3.38;1.73;;;;;;;;;;5070871;28;20017;-71
2022/09/09 00:14:43;;;;;;;5.15;1.50;;;;;;;;;;5065946;28;20032;-71
2022/09/09 00:17:13;;;;;;;2.33;1.40;;;;;;;;;;5073451;28;20043;-71
2022/09/09 00:19:57;;;;;;;5.68;1.67;;;;;;;;;;5065436;28;20048;-73
2022/09/09 00:22:28;;;;;;;4.18;1.90;;;;;;;;;;5072262;28;20477;-70
2022/09/09 00:24:55;;;;;;;3.08;1.58;;;;;;;;;;5074268;28;20032;-71
2022/09/09 00:27:39;;;;;;;2.75;1.48;;;;;;;;;;5073659;28;20504;-71
2022/09/09 00:30:14;;;;;;;5.50;1.70;;;;;;;;;;5073177;28;20025;-71
2022/09/09 00:32:40;;;;;;;3.75;1.55;;;;;;;;;;5072178;28;20040;-70
2022/09/09 00:35:23;;;;;;;4.15;1.52;;;;;;;;;;5066122;28;20083;-71
2022/09/09 00:37:51;;;;;;;6.40;1.98;;;;;;;;;;5071522;28;20271;-71
2022/09/09 00:40:34;;;;;;;5.28;1.58;;;;;;;;;;5064199;28;20107;-71
2022/09/09 00:43:20;;;;;;;6.88;1.60;;;;;;;;;;5070178;28;20028;-70
2022/09/09 00:46:01;;;;;;;7.43;1.80;;;;;;;;;;5055403;28;20036;-70
2022/09/09 00:48:27;;;;;;;;;;;;;;;;;;5065242;28;20024;-70
2022/09/09 00:50:53;;;;;;;2.65;1.50;;;;;;;;;;5072379;28;19926;-71
2022/09/09 00:53:34;;;;;;;4.55;1.33;;;;;;;;;;5072280;28;20440;-71
2022/09/09 00:56:20;;;;;;;6.07;1.60;;;;;;;;;;5072693;28;20048;-72
2022/09/09 00:58:56;;;;;;;3.10;0.80;;;;;;;;;;5070997;28;20147;-70
2022/09/09 01:01:22;;;;;;;3.22;0.90;;;;;;;;;;5072376;28;20036;-71
2022/09/09 01:03:54;;;;;;;5.38;0.88;;;;;;;;;;5073485;28;20028;-71
2022/09/09 01:06:31;;;;;;;3.85;0.95;;;;;;;;;;5073590;28;20027;-71
2022/09/09 01:09:09;;;;;;;4.45;0.98;;;;;;;;;;5070802;28;20027;-71
2022/09/09 01:12:01;;;;;;;2.08;0.80;;;;;;;;;;5065819;28;20078;-71
2022/09/09 01:14:36;;;;;;;2.78;1.00;;;;;;;;;;5033501;28;20040;-70
2022/09/09 01:17:15;;;;;;;3.28;1.00;;;;;;;;;;5071527;28;20033;-71
2022/09/09 01:19:48;;;;;;;5.32;0.80;;;;;;;;;;5071861;28;20032;-71
2022/09/09 01:22:26;;;;;;;3.15;0.90;;;;;;;;;;5071028;28;20382;-70
2022/09/09 01:24:52;;;;;;;5.32;1.17;;;;;;;;;;5073187;28;20070;-71
2022/09/09 01:27:18;;;;;;;4.63;1.20;;;;;;;;;;5073094;28;20103;-71
2022/09/09 01:29:44;;;;;;;3.92;1.20;;;;;;;;;;5071950;28;20454;-71
2022/09/09 01:32:29;;;;;;;4.70;1.23;;;;;;;;;;5069131;28;20056;-71
2022/09/09 01:34:55;;;;;;;2.63;0.95;;;;;;;;;;5071850;28;20060;-70
2022/09/09 01:37:21;;;;;;;2.55;0.88;;;;;;;;;;5071949;28;20071;-71
2022/09/09 01:39:47;;;;;;;3.58;1.00;;;;;;;;;;5071616;28;20070;-70
2022/09/09 01:42:15;;;;;;;5.05;0.93;;;;;;;;;;5071625;28;20016;-70
2022/09/09 01:44:41;;;;;;;3.22;0.82;;;;;;;;;;5073127;28;20508;-71
2022/09/09 01:47:07;;;;;;;4.30;0.75;;;;;;;;;;5072128;28;20024;-71
2022/09/09 01:49:33;;;;;;;4.55;0.90;;;;;;;;;;5070890;28;20040;-68
2022/09/09 01:51:59;;;;;;;2.80;0.90;;;;;;;;;;5070560;28;20056;-70
2022/09/09 01:54:28;;;;;;;2.97;1.33;;;;;;;;;;5071129;28;20044;-71
2022/09/09 01:56:54;;;;;;;2.65;1.20;;;;;;;;;;5071300;28;20037;-71
2022/09/09 01:59:39;;;;;;;3.95;1.42;;;;;;;;;;5077623;28;20199;-71
2022/09/09 02:02:14;;;;;;;2.00;1.20;;;;;;;;;;5080072;28;20024;-71
2022/09/09 02:04:44;;;;;;;3.28;1.23;;;;;;;;;;5077825;28;20038;-70
2022/09/09 02:07:17;;;;;;;5.35;1.20;;;;;;;;;;5077537;28;20024;-71
2022/09/09 02:09:45;;;;;;;3.55;1.65;;;;;;;;;;5077918;28;20037;-70
2022/09/09 02:12:17;;;;;;;2.20;1.05;;;;;;;;;;5077043;28;20052;-71
2022/09/09 02:14:47;;;;;;;2.97;1.38;;;;;;;;;;5078263;28;20038;-71
2022/09/09 02:17:15;;;;;;;4.93;1.45;;;;;;;;;;5077860;28;20043;-71
2022/09/09 02:19:50;;;;;;;6.00;1.23;;;;;;;;;;5077731;28;20021;-71
2022/09/09 02:22:18;;;;;;;1.00;0.70;;;;;;;;;;5078245;28;20032;-71
2022/09/09 02:24:46;;;;;;;4.65;0.90;;;;;;;;;;5077688;28;20469;-71
2022/09/09 02:27:12;;;;;;;5.28;1.13;;;;;;;;;;5079362;28;20059;-71
2022/09/09 02:29:42;;;;;;;3.13;0.70;;;;;;;;;;5078315;28;20037;-68
2022/09/09 02:32:14;;;;;;;2.95;0.90;;;;;;;;;;5069957;28;20481;-71
2022/09/09 02:34:42;;;;;;;1.88;0.70;;;;;;;;;;5076775;28;20154;-71
2022/09/09 02:37:10;;;;;;;4.47;0.82;;;;;;;;;;5077458;28;20029;-71
2022/09/09 02:39:36;;;;;;;2.10;0.80;;;;;;;;;;5076341;28;20033;-70
2022/09/09 02:42:03;;;;;;;5.28;1.45;;;;;;;;;;5077764;28;20095;-70
2022/09/09 02:44:29;;;;;;;3.88;0.70;;;;;;;;;;5077656;28;20093;-70
2022/09/09 02:47:08;;;;;;;4.55;0.63;;;;;;;;;;5079405;28;20024;-70
2022/09/09 02:49:36;;;;;;;3.17;0.70;;;;;;;;;;5077147;28;20028;-71
2022/09/09 02:52:08;;;;;;;1.17;0.50;;;;;;;;;;5078630;28;20053;-71
2022/09/09 02:54:36;;;;;;;2.08;0.80;;;;;;;;;;5076640;28;20016;-71
2022/09/09 02:57:07;;;;;;;3.28;0.68;;;;;;;;;;5077833;28;20028;-72
2022/09/09 02:59:34;;;;;;;2.08;0.90;;;;;;;;;;5079355;28;20473;-72
2022/09/09 03:02:00;;;;;;;2.15;0.80;;;;;;;;;;5078299;28;20860;-72
2022/09/09 03:04:26;;;;;;;2.85;0.80;;;;;;;;;;5072297;28;20044;-72
2022/09/09 03:06:52;;;;;;;2.55;0.90;;;;;;;;;;5076300;28;20036;-72
2022/09/09 03:09:18;;;;;;;1.90;0.50;;;;;;;;;;5078064;28;20021;-72
2022/09/09 03:11:44;;;;;;;2.13;0.63;;;;;;;;;;5072959;28;20025;-71
2022/09/09 03:14:11;;;;;;;2.20;0.77;;;;;;;;;;5074498;28;20043;-72
2022/09/09 03:16:37;;;;;;;2.45;0.93;;;;;;;;;;5074145;28;20078;-72
2022/09/09 03:19:03;;;;;;;1.67;0.60;;;;;;;;;;5074431;28;20029;-71
2022/09/09 03:21:29;;;;;;;3.17;0.70;;;;;;;;;;5075584;28;20020;-72
2022/09/09 03:23:55;;;;;;;1.65;0.80;;;;;;;;;;5074243;28;20030;-72
2022/09/09 03:26:21;;;;;;;3.00;0.75;;;;;;;;;;5078819;28;20023;-72
2022/09/09 03:28:47;;;;;;;2.85;0.80;;;;;;;;;;5078583;28;20103;-72
2022/09/09 03:31:14;;;;;;;2.15;0.55;;;;;;;;;;5080259;28;20035;-71
2022/09/09 03:33:41;;;;;;;2.72;0.45;;;;;;;;;;5059975;28;20078;-72
2022/09/09 03:36:08;;;;;;;2.20;0.47;;;;;;;;;;5076611;28;20024;-72
2022/09/09 03:38:34;;;;;;;1.25;0.43;;;;;;;;;;5076440;28;20047;-71
2022/09/09 03:41:01;;;;;;;4.70;0.90;;;;;;;;;;5074309;28;20024;-72
2022/09/09 03:43:28;;;;;;;2.72;0.98;;;;;;;;;;5073910;28;20074;-73
2022/09/09 03:45:57;;;;;;;2.00;0.73;;;;;;;;;;5072384;28;20111;-72
2022/09/09 03:48:24;;;;;;;1.93;0.40;;;;;;;;;;5073798;28;20500;-72
2022/09/09 03:50:51;;;;;;;2.15;0.43;;;;;;;;;;5072850;28;20275;-72
2022/09/09 03:53:19;;;;;;;2.92;0.57;;;;;;;;;;5073909;28;20099;-72
2022/09/09 03:55:49;;;;;;;1.48;0.60;;;;;;;;;;5073637;28;20025;-72
2022/09/09 03:58:18;;;;;;;4.03;0.60;;;;;;;;;;5073033;28;20037;-72
2022/09/09 04:00:45;;;;;;;2.60;0.60;;;;;;;;;;5065498;28;20040;-72
2022/09/09 04:03:11;;;;;;;3.13;0.77;;;;;;;;;;5074324;28;20503;-72
2022/09/09 04:05:42;;;;;;;1.42;0.80;;;;;;;;;;5074491;28;20028;-72
2022/09/09 04:08:08;;;;;;;1.48;0.43;;;;;;;;;;5073124;28;20032;-73
2022/09/09 04:10:36;;;;;;;4.88;0.85;;;;;;;;;;5073450;28;20123;-72
2022/09/09 04:13:02;;;;;;;4.20;0.73;;;;;;;;;;5072352;28;20028;-74
2022/09/09 04:15:28;;;;;;;1.27;0.50;;;;;;;;;;5073477;28;20040;-73
2022/09/09 04:17:55;;;;;;;2.75;0.68;;;;;;;;;;5073123;28;20477;-72
2022/09/09 04:20:21;;;;;;;2.00;0.73;;;;;;;;;;5073142;28;20073;-72
2022/09/09 04:22:47;;;;;;;2.60;0.70;;;;;;;;;;5074217;28;20028;-74
2022/09/09 04:25:14;;;;;;;1.42;0.85;;;;;;;;;;5073861;28;20024;-72
2022/09/09 04:27:39;;;;;;;1.25;0.60;;;;;;;;;;5071058;28;20032;-72
2022/09/09 04:30:06;;;;;;;3.25;0.90;;;;;;;;;;5072544;28;20028;-72
2022/09/09 04:32:33;;;;;;;0.98;0.68;;;;;;;;;;5073313;28;20040;-73
2022/09/09 04:34:59;;;;;;;2.30;0.75;;;;;;;;;;5074123;28;20035;-72
2022/09/09 04:37:25;;;;;;;2.97;0.95;;;;;;;;;;5073818;28;20103;-72
2022/09/09 04:39:51;;;;;;;2.67;0.80;;;;;;;;;;5073490;28;20477;-72
2022/09/09 04:42:19;;;;;;;4.22;0.85;;;;;;;;;;5070954;28;20468;-72
2022/09/09 04:44:45;;;;;;;2.65;0.75;;;;;;;;;;5073815;28;20067;-72
2022/09/09 04:47:11;;;;;;;2.88;0.95;;;;;;;;;;5074131;28;20040;-73
2022/09/09 04:49:38;;;;;;;1.90;1.00;;;;;;;;;;5074007;28;20052;-71
2022/09/09 04:52:04;;;;;;;5.13;1.40;;;;;;;;;;5060881;28;20041;-72
2022/09/09 04:54:30;;;;;;;5.53;1.48;;;;;;;;;;5072576;28;20043;-72
2022/09/09 04:56:56;;;;;;;5.72;2.03;;;;;;;;;;5072060;28;20035;-72
2022/09/09 04:59:22;;;;;;;5.38;1.42;;;;;;;;;;5071389;28;20032;-72
2022/09/09 05:01:50;;;;;;;4.70;1.90;;;;;;;;;;5073782;28;20029;-72
2022/09/09 05:04:16;;;;;;;4.55;1.35;;;;;;;;;;5073757;28;20036;-72
2022/09/09 05:06:42;;;;;;;4.35;1.60;;;;;;;;;;5071832;28;20071;-72
2022/09/09 05:09:09;;;;;;;5.82;1.45;;;;;;;;;;5071401;28;20051;-72
2022/09/09 05:11:38;;;;;;;9.70;2.38;;;;;;;;;;5071821;28;20036;-73
2022/09/09 05:14:04;;;;;;;4.60;1.98;;;;;;;;;;5070961;28;20036;-75
2022/09/09 05:16:31;;;;;;;5.20;1.40;;;;;;;;;;5071918;28;20035;-72
2022/09/09 05:18:58;;;;;;;4.40;1.30;;;;;;;;;;5071077;28;20118;-72
2022/09/09 05:21:26;;;;;;;6.43;1.20;;;;;;;;;;5071975;28;20035;-72
2022/09/09 05:23:52;;;;;;;2.80;1.38;;;;;;;;;;5071094;28;20024;-71
2022/09/09 05:26:19;;;;;;;3.35;0.82;;;;;;;;;;5071201;28;20021;-71
2022/09/09 05:28:46;;;;;;;2.05;0.73;;;;;;;;;;5065940;28;20103;-72
2022/09/09 05:31:12;;;;;;;2.45;0.82;;;;;;;;;;5071219;28;20029;-72
2022/09/09 05:33:42;;;;;;;3.47;1.40;;;;;;;;;;5071375;28;20518;-72
2022/09/09 05:36:10;;;;;;;3.00;0.95;;;;;;;;;;5070932;28;20083;-72
2022/09/09 05:38:37;;;;;;;1.83;0.70;;;;;;;;;;5070941;28;20119;-73
2022/09/09 05:41:04;;;;;;;1.83;0.70;;;;;;;;;;5070866;28;20437;-72
2022/09/09 05:43:32;;;;;;;2.60;0.73;;;;;;;;;;5071233;28;20052;-71
2022/09/09 05:46:04;;;;;;;2.10;0.70;;;;;;;;;;5062676;28;20040;-71
2022/09/09 05:48:34;;;;;;;3.05;1.50;;;;;;;;;;5071316;28;20047;-71
2022/09/09 05:51:00;;;;;;;7.00;1.50;;;;;;;;;;5070321;28;20048;-70
2022/09/09 05:53:36;;;;;;;6.28;1.63;;;;;;;;;;5071425;28;20052;-71
2022/09/09 05:56:06;;;;;;;4.88;2.22;;;;;;;;;;5070433;28;20362;-71
2022/09/09 05:58:32;;;;;;;8.80;2.88;;;;;;;;;;5070810;28;20032;-71
2022/09/09 06:01:09;;;;;;;9.10;2.45;;;;;;;;;;5070681;28;20063;-71
2022/09/09 06:03:36;;;;;;;7.57;2.83;;;;;;;;;;5070537;28;20441;-71
2022/09/09 06:06:05;;;;;;;7.20;2.38;;;;;;;;;;5069792;28;20067;-70
2022/09/09 06:08:31;;;;;;;7.82;2.03;;;;;;;;;;5070703;28;20115;-71
2022/09/09 06:11:07;;;;;;;7.95;1.10;;;;;;;;;;5069724;28;20059;-71
2022/09/09 06:13:34;;;;;;;3.65;1.00;;;;;;;;;;5068631;28;20374;-71
2022/09/09 06:16:01;;;;;;;3.90;0.98;;;;;;;;;;5069547;28;20086;-71
2022/09/09 06:18:27;;;;;;;2.25;0.95;;;;;;;;;;5066059;28;20036;-71
2022/09/09 06:21:04;;;;;;;4.25;0.98;;;;;;;;;;5066956;28;20032;-67
2022/09/09 06:23:30;;;;;;;2.20;1.08;;;;;;;;;;5070046;28;20029;-71
2022/09/09 06:26:05;;;;;;;3.47;1.15;;;;;;;;;;5069817;28;20448;-71
2022/09/09 06:28:31;;;;;;;3.72;1.00;;;;;;;;;;5062676;28;20021;-71
2022/09/09 06:30:58;;;;;;;4.32;1.20;;;;;;;;;;5070406;28;20103;-71
2022/09/09 06:33:24;;;;;;;3.33;1.05;;;;;;;;;;5071102;28;20032;-71
2022/09/09 06:35:53;;;;;;;3.13;1.13;;;;;;;;;;5070764;28;20021;-67
2022/09/09 06:38:19;;;;;;;2.20;0.65;;;;;;;;;;5070899;28;20032;-72
2022/09/09 06:40:55;;;;;;;2.92;0.90;;;;;;;;;;5071076;28;20036;-71
2022/09/09 06:43:21;;;;;;;6.38;1.33;;;;;;;;;;5062002;28;20028;-72
2022/09/09 06:45:56;;;;;;;3.78;1.08;;;;;;;;;;5073769;28;20021;-72
2022/09/09 06:48:22;;;;;;;4.47;1.15;;;;;;;;;;5072267;28;20036;-71
2022/09/09 06:50:49;;;;;;;6.70;0.95;;;;;;;;;;5074240;28;20060;-72
2022/09/09 06:53:21;;;;;;;2.88;0.98;;;;;;;;;;5073807;28;20035;-77
2022/09/09 06:55:47;;;;;;;4.32;1.15;;;;;;;;;;5074737;28;20016;-72
2022/09/09 06:58:13;;;;;;;2.83;1.05;;;;;;;;;;5073362;28;20013;-74
2022/09/09 07:00:39;;;;;;;2.42;1.00;;;;;;;;;;5074233;28;20082;-73
2022/09/09 07:03:06;;;;;;;5.35;1.42;;;;;;;;;;5073539;28;20385;-72
2022/09/09 07:05:32;;;;;;;3.22;0.90;;;;;;;;;;5074090;28;20112;-72
2022/09/09 07:07:58;;;;;;;1.70;1.00;;;;;;;;;;5073576;28;20036;-72
2022/09/09 07:10:24;;;;;;;4.10;1.15;;;;;;;;;;5071803;28;20029;-70
2022/09/09 07:12:54;;;;;;;3.72;1.10;;;;;;;;;;5074160;28;20074;-73
2022/09/09 07:15:21;;;;;;;2.40;0.90;;;;;;;;;;5072311;28;20033;-73
2022/09/09 07:17:48;;;;;;;5.60;1.60;;;;;;;;;;5067849;28;20124;-72
2022/09/09 07:20:14;;;;;;;5.97;1.83;;;;;;;;;;5072607;28;20585;-70
2022/09/09 07:22:40;;;;;;;10.43;1.75;;;;;;;;;;5074147;28;20481;-70
2022/09/09 07:25:07;;;;;;;5.40;1.40;;;;;;;;;;5073170;28;20055;-69
2022/09/09 07:27:33;;;;;;;9.57;1.92;;;;;;;;;;5068681;28;20378;-70
2022/09/09 07:29:59;;;;;;;4.47;1.40;;;;;;;;;;5072719;28;20016;-70
2022/09/09 07:32:25;;;;;;;5.82;1.73;;;;;;;;;;5073458;28;20025;-69
2022/09/09 07:34:51;;;;;;;2.35;1.40;;;;;;;;;;5073322;28;20389;-70
2022/09/09 07:37:17;;;;;;;4.00;1.33;;;;;;;;;;5073045;28;20173;-69
2022/09/09 07:39:43;;;;;;;1.73;0.82;;;;;;;;;;5073793;28;20033;-75
2022/09/09 07:42:13;;;;;;;4.53;0.88;;;;;;;;;;5073067;28;20048;-79
2022/09/09 07:44:39;;;;;;;3.70;1.10;;;;;;;;;;5064363;28;20029;-76
2022/09/09 07:47:06;;;;;;;3.28;0.95;;;;;;;;;;5072885;28;20472;-79
2022/09/09 07:49:32;;;;;;;7.20;0.90;;;;;;;;;;5074092;28;20028;-68
2022/09/09 07:51:58;;;;;;;6.70;1.20;;;;;;;;;;5072151;27;20074;-71
2022/09/09 07:54:25;;;;;;;7.63;1.13;;;;;;;;;;5073369;28;20078;-72
2022/09/09 07:56:52;;;;;;;7.50;1.00;;;;;;;;;;5071761;28;20465;-73
2022/09/09 07:59:18;;;;;;;7.65;0.98;;;;;;;;;;5066742;28;20197;-72
2022/09/09 08:01:46;;;;;;;4.93;1.30;;;;;;;;;;5073032;28;20017;-72
2022/09/09 08:04:16;;;;;;;4.03;0.93;;;;;;;;;;5072459;28;20020;-72
2022/09/09 08:06:52;;;;;;;2.60;0.98;;;;;;;;;;5073083;28;20020;-71
2022/09/09 08:09:18;;;;;;;6.80;1.33;;;;;;;;;;5072374;28;20036;-71
2022/09/09 08:11:45;;;;;;;3.05;1.05;;;;;;;;;;5072694;28;20377;-71
2022/09/09 08:14:12;;;;;;;4.68;0.90;;;;;;;;;;5072183;28;20373;-71
2022/09/09 08:16:40;;;;;;;6.70;1.55;;;;;;;;;;5073399;28;20036;-71
2022/09/09 08:19:07;;;;;;;5.47;1.20;;;;;;;;;;5071817;28;20097;-71
2022/09/09 08:21:34;;;;;;;7.28;1.50;;;;;;;;;;5054829;28;20201;-71
2022/09/09 08:24:01;;;;;;;5.30;1.10;;;;;;;;;;5071952;28;20028;-72
2022/09/09 08:26:28;;;;;;;3.55;1.30;;;;;;;;;;5072827;28;20024;-72
2022/09/09 08:28:56;;;;;;;4.22;1.15;;;;;;;;;;5072065;28;20028;-72
2022/09/09 08:31:27;;;;;;;5.43;1.17;;;;;;;;;;5071897;28;20174;-71
2022/09/09 08:33:54;;;;;;;3.03;0.90;;;;;;;;;;5072655;28;20032;-71
2022/09/09 08:36:21;;;;;;;4.63;1.60;;;;;;;;;;5071462;28;20029;-72
2022/09/09 08:38:51;;;;;;;2.90;1.05;;;;;;;;;;5064318;28;20044;-71
2022/09/09 08:41:36;;;;;;;4.20;1.20;;;;;;;;;;5066495;28;20040;-72
2022/09/09 08:44:02;;;;;;;3.22;0.98;;;;;;;;;;5065456;28;20104;-72
2022/09/09 08:46:34;;;;;;;3.60;1.10;;;;;;;;;;5071300;28;20028;-72
2022/09/09 08:49:20;;;;;;;6.88;1.60;;;;;;;;;;5071692;28;20047;-72
2022/09/09 08:51:46;;;;;;;5.57;0.85;;;;;;;;;;5009377;28;20076;-71
2022/09/09 08:54:13;;;;;;;5.25;1.35;;;;;;;;;;5051355;28;20493;-73
2022/09/09 08:56:39;;;;;;;8.30;1.42;;;;;;;;;;5052335;28;20024;-72
2022/09/09 08:59:05;;;;;;;5.72;1.20;;;;;;;;;;5051592;28;20374;-73
2022/09/09 09:01:40;;;;;;;4.57;1.00;;;;;;;;;;5034125;28;20739;-72
2022/09/09 09:04:18;;;;;;;4.10;0.98;;;;;;;;;;5051303;28;20478;-72
2022/09/09 09:06:48;;;;;;;3.58;0.85;;;;;;;;;;5051973;28;20032;-71
2022/09/09 09:09:30;;;;;;;4.55;1.10;;;;;;;;;;5050272;28;20021;-72
2022/09/09 09:12:01;;;;;;;5.72;0.90;;;;;;;;;;5043382;28;20052;-72
2022/09/09 09:14:30;;;;;;;7.47;1.70;;;;;;;;;;5051658;28;20450;-72
2022/09/09 09:17:00;;;;;;;4.40;1.40;;;;;;;;;;5051784;28;20091;-77
2022/09/09 09:19:26;;;;;;;;;;;;;;;;;;5051680;28;20031;-76
2022/09/09 09:22:15;;;;;;;5.10;1.25;;;;;;;;;;5051717;28;19916;-76
2022/09/09 09:24:42;;;;;;;5.28;1.10;;;;;;;;;;5052010;28;20028;-76
2022/09/09 09:27:13;;;;;;;2.30;1.10;;;;;;;;;;5050766;28;20482;-71
2022/09/09 09:29:40;;;;;;;4.13;1.00;;;;;;;;;;5051794;28;20021;-69
2022/09/09 09:32:10;;;;;;;4.82;1.58;;;;;;;;;;5045699;28;20017;-72
2022/09/09 09:34:36;;;;;;;;;;;;;;;;;;5051303;28;20021;-71
2022/09/09 09:37:02;;;;;;;5.55;1.27;;;;;;;;;;5048487;28;20464;-71
2022/09/09 09:39:30;;;;;;;2.42;0.88;;;;;;;;;;5050619;28;20049;-71
2022/09/09 09:41:57;;;;;;;3.90;1.00;;;;;;;;;;5049448;28;20473;-71
2022/09/09 09:44:31;;;;;;;4.18;0.93;;;;;;;;;;5049809;28;20029;-71
2022/09/09 09:47:07;;;;;;;3.40;1.00;;;;;;;;;;5049115;28;20496;-71
2022/09/09 09:49:33;;;;;;;2.60;0.80;;;;;;;;;;5047316;28;20033;-81
2022/09/09 09:52:03;;;;;;;2.85;0.60;;;;;;;;;;5063953;28;20067;-73
2022/09/09 09:54:30;;;;;;;2.63;0.70;;;;;;;;;;5071077;28;20017;-72
2022/09/09 09:56:56;;;;;;;2.78;0.85;;;;;;;;;;5068276;28;20034;-73
2022/09/09 09:59:27;;;;;;;3.47;0.80;;;;;;;;;;5070208;28;20377;-72
2022/09/09 10:01:53;;;;;;;1.38;0.60;;;;;;;;;;5066276;28;20071;-72
2022/09/09 10:04:22;;;;;;;2.28;0.50;;;;;;;;;;5069938;28;20048;-72
2022/09/09 10:06:49;;;;;;;1.77;0.68;;;;;;;;;;5065093;28;20554;-72
2022/09/09 10:09:34;;;;;;;3.63;0.75;;;;;;;;;;5069901;28;20033;-71
2022/09/09 10:12:21;;;;;;;2.88;0.80;;;;;;;;;;5065119;28;20039;-72
2022/09/09 10:14:50;;;;;;;3.50;0.90;;;;;;;;;;5069746;28;20032;-74
2022/09/09 10:17:28;;;;;;;6.72;1.02;;;;;;;;;;5047591;28;20029;-76
2022/09/09 10:20:05;;;;;;;2.70;1.00;;;;;;;;;;5070570;28;20040;-77
2022/09/09 10:22:34;;;;;;;4.07;1.13;;;;;;;;;;5069456;28;20107;-78
2022/09/09 10:25:15;;;;;;;3.63;1.10;;;;;;;;;;5073049;28;20025;-78
2022/09/09 10:27:50;;;;;;;4.10;1.02;;;;;;;;;;5073731;28;20267;-76
2022/09/09 10:30:18;;;;;;;6.50;1.15;;;;;;;;;;5068929;28;20523;-73
2022/09/09 10:32:57;;;;;;;1.98;0.80;;;;;;;;;;5072566;28;20043;-76
2022/09/09 10:35:26;;;;;;;3.20;1.00;;;;;;;;;;5067984;28;20021;-72
2022/09/09 10:37:52;;;;;;;3.03;0.95;;;;;;;;;;5072423;28;20028;-87
2022/09/09 10:40:21;;;;;;;4.97;1.25;;;;;;;;;;5054040;28;20087;-80
2022/09/09 10:42:47;;;;;;;4.88;1.10;;;;;;;;;;5074378;28;20029;-72
2022/09/09 10:45:21;;;;;;;2.17;1.02;;;;;;;;;;5070062;28;20131;-77
2022/09/09 10:48:09;;;;;;;2.17;0.90;;;;;;;;;;5067148;28;20044;-78
2022/09/09 10:50:35;;;;;;;3.10;1.13;;;;;;;;;;5068809;28;20060;-76
2022/09/09 10:53:20;;;;;;;4.45;1.27;;;;;;;;;;5073961;28;20024;-75
2022/09/09 10:55:52;;;;;;;2.90;1.10;;;;;;;;;;5072710;28;20359;-76
2022/09/09 10:58:23;;;;;;;1.75;0.90;;;;;;;;;;5073096;28;20029;-76
2022/09/09 11:01:02;;;;;;;1.80;0.90;;;;;;;;;;5066173;28;20029;-78
2022/09/09 11:03:33;;;;;;;4.32;1.10;;;;;;;;;;5072870;28;20028;-78
2022/09/09 11:06:06;;;;;;;6.50;1.38;;;;;;;;;;5071767;28;20039;-81
2022/09/09 11:08:35;;;;;;;1.90;0.80;;;;;;;;;;5074100;28;20114;-77
2022/09/09 11:11:08;;;;;;;5.35;1.30;;;;;;;;;;5068201;28;20016;-76
2022/09/09 11:13:48;;;;;;;7.55;1.13;;;;;;;;;;5073897;28;20029;-78
2022/09/09 11:16:14;;;;;;;;;;;;;;;;;;5069778;28;20485;-76
2022/09/09 11:18:41;;;;;;;7.03;1.10;;;;;;;;;;5073664;28;19912;-79
2022/09/09 11:21:10;;;;;;;5.35;1.38;;;;;;;;;;5060438;28;20028;-74
2022/09/09 11:23:40;;;;;;;4.53;1.00;;;;;;;;;;5073288;28;20478;-78
2022/09/09 11:26:08;;;;;;;4.50;0.93;;;;;;;;;;5070291;28;20027;-74
2022/09/09 11:28:52;;;;;;;7.22;1.23;;;;;;;;;;5072493;28;20025;-75
2022/09/09 11:31:22;;;;;;;3.80;1.05;;;;;;;;;;5071253;28;20358;-79
2022/09/09 11:34:02;;;;;;;1.90;0.65;;;;;;;;;;5073785;28;20122;-78
2022/09/09 11:36:43;;;;;;;2.60;0.65;;;;;;;;;;5072801;28;20676;-78
2022/09/09 11:39:36;;;;;;;5.22;0.70;;;;;;;;;;5055446;28;20475;-73
2022/09/09 11:42:29;;;;;;;7.05;1.00;;;;;;;;;;5073682;28;20039;-79
2022/09/09 11:44:56;;;;;;;3.75;0.90;;;;;;;;;;5069320;28;20043;-79
2022/09/09 11:47:29;;;;;;;6.85;0.98;;;;;;;;;;5072683;28;20028;-79
2022/09/09 11:49:56;;;;;;;2.85;0.70;;;;;;;;;;5073707;28;20056;-79
2022/09/09 11:52:25;;;;;;;2.63;0.63;;;;;;;;;;5071828;28;20040;-79
2022/09/09 11:54:51;;;;;;;1.42;0.57;;;;;;;;;;5073848;28;20024;-79
2022/09/09 11:57:25;;;;;;;2.38;0.50;;;;;;;;;;5072651;28;20036;-79
2022/09/09 11:59:52;;;;;;;4.63;0.73;;;;;;;;;;5073319;28;20024;-80
2022/09/09 12:02:18;;;;;;;1.33;0.65;;;;;;;;;;5072626;28;20021;-80
2022/09/09 12:04:48;;;;;;;3.35;0.68;;;;;;;;;;5072984;28;20028;-79
2022/09/09 12:07:46;;;;;;;4.07;0.70;;;;;;;;;;5072391;28;20378;-79
2022/09/09 12:10:30;;;;;;;2.25;0.35;;;;;;;;;;5019504;28;20059;-77
2022/09/09 12:12:56;;;;;;;0.52;0.50;;;;;;;;;;5063657;28;20052;-80
2022/09/09 12:15:28;;;;;;;0.40;0.30;;;;;;;;;;5080302;28;20111;-80
2022/09/09 12:17:55;;;;;;;0.68;0.38;;;;;;;;;;5068090;28;20036;-79
2022/09/09 12:20:24;;;;;;;1.42;0.40;;;;;;;;;;5071807;28;20465;-75
2022/09/09 12:23:17;;;;;;;0.70;0.40;;;;;;;;;;5072577;28;20024;-80
2022/09/09 12:25:51;;;;;;;3.30;0.57;;;;;;;;;;5032799;28;20048;-81
2022/09/09 12:28:20;;;;;;;1.00;0.55;;;;;;;;;;5072206;28;20020;-81
2022/09/09 12:30:55;;;;;;;1.95;0.60;;;23.80;99.90;;;;;;5072792;28;20033;-81
2022/09/09 12:33:21;;;;;;;0.95;0.60;;;24.40;92.50;;;;;;5071740;28;20393;-85
2022/09/09 12:35:55;;;;;;;1.63;0.60;;;24.80;87.10;;;;;;5070493;28;20028;-81
2022/09/09 12:38:34;;;;;;;3.08;0.63;;;25.30;83.90;;;;;;5069407;28;20029;-87
2022/09/09 12:41:00;;;;;;;2.28;0.80;;;25.50;81.30;;;;;;5072756;28;20032;-79
2022/09/09 12:43:27;;;;;;;1.80;0.75;;;25.70;80.20;;;;;;5066349;28;20029;-82
2022/09/09 12:46:02;;;;;;;1.90;0.82;;;26.00;78.70;;;;;;5072640;28;20040;-82
2022/09/09 12:48:43;;;;;;;1.33;0.68;;;26.10;76.90;;;;;;5072250;28;20039;-80
2022/09/09 12:51:25;;;;;;;2.55;0.60;;;25.80;77.30;;;;;;5070671;28;20044;-78
2022/09/09 12:53:51;;;;;;;2.53;0.60;;;25.40;78.10;;;;;;5072058;28;20024;-74
2022/09/09 12:56:26;;;;;;;2.47;0.63;;;25.00;79.10;;;;;;5072505;28;20028;-75
2022/09/09 12:58:53;;;;;;;1.63;0.82;;;24.60;80.00;;;;;;5073612;28;20130;-74
2022/09/09 13:01:21;;;;;;;2.33;0.70;;;24.40;81.00;;;;;;5073016;28;20082;-75
2022/09/09 13:03:47;;;;;;;1.75;0.57;;;24.40;81.60;;;;;;5071780;28;20036;-75
2022/09/09 13:06:24;;;;;;;1.85;0.88;;;24.10;82.10;;;;;;5069919;28;20024;-75
2022/09/09 13:08:54;;;;;;;1.67;0.60;;;24.00;82.50;;;;;;5071898;28;20082;-75
2022/09/09 13:11:34;;;;;;;2.03;0.68;;;24.10;82.90;;;;;;5072331;28;20029;-75
2022/09/09 13:14:00;;;;;;;1.33;0.55;;;23.80;83.40;;;;;;5071460;28;20033;-76
2022/09/09 13:16:32;;;;;;;0.98;0.50;;;23.60;83.30;;;;;;5069899;28;21244;-74
2022/09/09 13:19:09;;;;;;;2.17;0.65;;;23.60;82.60;;;;;;5071507;28;20107;-73
2022/09/09 13:21:37;;;;;;;2.13;0.68;;;23.50;83.00;;;;;;5071541;28;20120;-74
2022/09/09 13:24:07;;;;;;;2.08;0.80;;;23.50;83.20;;;;;;5072365;28;20380;-78
2022/09/09 13:26:34;;;;;;;3.33;0.60;;;23.60;82.40;;;;;;5072254;28;20028;-71
2022/09/09 13:29:19;;;;;;;2.90;0.63;;;23.70;82.80;;;;;;5071010;28;20071;-71
2022/09/09 13:31:45;;;;;;;3.67;0.73;;;23.80;82.60;;;;;;5065046;28;20065;-72
2022/09/09 13:34:32;;;;;;;4.38;0.70;;;24.00;82.50;;;;;;5072386;28;20063;-73
2022/09/09 13:37:05;;;;;;;2.00;0.98;;;24.10;82.60;;;;;;5072840;28;20055;-74
2022/09/09 13:39:34;;;;;;;1.75;0.55;;;24.20;82.40;;;;;;5070529;28;20037;-78
2022/09/09 13:42:00;;;;;;;5.80;0.98;;;24.60;81.90;;;;;;5073168;28;20028;-79
2022/09/09 13:44:38;;;;;;;1.67;0.60;;;25.00;79.50;;;;;;5072748;28;20074;-82
2022/09/09 13:47:19;;;;;;;3.50;1.13;;;24.90;78.50;;;;;;5070559;28;20466;-84
2022/09/09 13:49:46;;;;;;;1.77;0.43;;;24.70;77.40;;;;;;5066261;28;20397;-79
2022/09/09 13:52:15;;;;;;;0.98;0.65;;;24.40;78.10;;;;;;5070620;28;20434;-86
2022/09/09 13:54:41;;;;;;;6.80;0.50;;;24.20;78.30;;;;;;5071484;28;20047;-80
2022/09/09 13:57:18;;;;;;;2.28;0.40;;;24.10;78.50;;;;;;5072867;28;20290;-81
2022/09/09 13:59:45;;;;;;;1.33;0.45;;;23.90;79.00;;;;;;5066855;28;20025;-81
2022/09/09 14:02:11;;;;;;;2.60;0.70;;;23.70;79.90;;;;;;5072919;28;20056;-82
2022/09/09 14:04:36;;;;;;;4.28;0.68;;;23.80;80.10;;;;;;5070942;28;20056;-81
2022/09/09 14:07:02;;;;;;;2.88;0.85;;;24.20;79.90;;;;;;5071774;28;20086;-82
2022/09/09 14:09:28;;;;;;;1.95;0.60;;;24.60;78.80;;;;;;5070370;28;20466;-80
2022/09/09 14:11:55;;;;;;;3.35;0.90;;;24.80;78.10;;;;;;5071166;28;20031;-81
2022/09/09 14:14:20;;;;;;;2.28;0.95;;;24.70;77.50;;;;;;5070729;28;20067;-85
2022/09/09 14:16:47;;;;;;;1.73;0.60;;;24.60;77.70;;;;;;5071397;28;20036;-85
2022/09/09 14:19:12;;;;;;;5.70;0.90;;;24.80;76.70;;;;;;5071164;28;20149;-82
2022/09/09 14:21:38;;;;;;;3.35;0.70;;;25.00;76.40;;;;;;5070132;28;20226;-80
2022/09/09 14:24:04;;;;;;;1.10;0.50;;;25.00;76.10;;;;;;5071018;28;20016;-84
2022/09/09 14:26:30;;;;;;;3.95;1.27;;;24.90;76.20;;;;;;5070108;28;20150;-84
2022/09/09 14:28:56;;;;;;;3.55;0.82;;;24.90;75.70;;;;;;5071531;28;20053;-83
2022/09/09 14:31:22;;;;;;;3.00;0.95;;;24.50;76.00;;;;;;5071325;28;20050;-83
2022/09/09 14:33:48;;;;;;;1.95;0.80;;;24.20;76.80;;;;;;5071987;28;20546;-84
2022/09/09 14:36:14;;;;;;;1.83;0.85;;;23.90;77.60;;;;;;5071944;28;20052;-79
2022/09/09 14:38:41;;;;;;;2.28;0.60;;;23.70;77.20;;;;;;5074326;28;20037;-84
2022/09/09 14:41:10;;;;;;;1.92;0.60;;;23.60;77.30;;;;;;5075534;28;20028;-82